createdAt,value
2019-05-20T00:01:19.053Z,97632.73
2019-05-20T00:04:32.555Z,97637.37
2019-05-20T00:07:46.527Z,97641.13
2019-05-20T00:11:00.351Z,97639.38
2019-05-20T00:14:13.928Z,97636.72
2019-05-20T00:17:27.679Z,97640.52
2019-05-20T00:20:41.195Z,97636.79
2019-05-20T00:23:54.667Z,97635.35
2019-05-20T00:27:08.159Z,97630.53
2019-05-20T00:30:21.751Z,97639.46
2019-05-20T00:33:35.214Z,97628.84
2019-05-20T00:36:48.915Z,97630.66
2019-05-20T00:40:03.053Z,97629.88
2019-05-20T00:43:16.822Z,97634.68
2019-05-20T00:46:30.378Z,97635.41
2019-05-20T00:49:43.861Z,97632.42
2019-05-20T00:52:57.581Z,97630.83
2019-05-20T00:56:11.060Z,97623.91
2019-05-20T00:59:24.527Z,97630.42
2019-05-20T01:02:38.135Z,97630.67
2019-05-20T01:05:51.867Z,97632.92
2019-05-20T01:09:07.091Z,97633.17
2019-05-20T01:12:20.620Z,97625.15
2019-05-20T01:15:34.219Z,97626.27
2019-05-20T01:18:47.734Z,97619.78
2019-05-20T01:22:01.605Z,97621.31
2019-05-20T01:25:15.310Z,97625.81
2019-05-20T01:28:28.941Z,97620.43
2019-05-20T01:31:42.453Z,97613.36
2019-05-20T01:34:55.946Z,97620.00
2019-05-20T01:38:09.531Z,97622.52
2019-05-20T01:41:23.250Z,97618.16
2019-05-20T01:44:36.850Z,97617.50
2019-05-20T01:47:50.350Z,97613.03
2019-05-20T01:51:03.850Z,97610.68
2019-05-20T01:54:17.445Z,97611.25
2019-05-20T01:57:30.972Z,97600.41
2019-05-20T02:00:44.980Z,97600.31
2019-05-20T02:03:58.559Z,97601.76
2019-05-20T02:07:12.621Z,97604.45
2019-05-20T02:10:26.129Z,97604.30
2019-05-20T02:13:51.640Z,97609.69
2019-05-20T02:17:05.265Z,97606.36
2019-05-20T02:20:18.867Z,97600.56
2019-05-20T02:23:32.483Z,97598.34
2019-05-20T02:26:45.983Z,97600.16
2019-05-20T02:29:59.786Z,97599.91
2019-05-20T02:33:13.477Z,97603.28
2019-05-20T02:36:27.177Z,97601.44
2019-05-20T02:39:41.037Z,97603.91
2019-05-20T02:42:54.792Z,97601.96
2019-05-20T02:46:08.492Z,97606.63
2019-05-20T02:49:22.014Z,97607.72
2019-05-20T02:52:35.521Z,97607.55
2019-05-20T02:55:49.316Z,97609.14
2019-05-20T02:59:03.422Z,97614.27
2019-05-20T03:02:17.257Z,97609.75
2019-05-20T03:05:30.750Z,97612.92
2019-05-20T03:08:44.720Z,97610.10
2019-05-20T03:11:58.348Z,97612.41
2019-05-20T03:15:12.374Z,97616.12
2019-05-20T03:18:26.143Z,97614.67
2019-05-20T03:21:39.971Z,97612.81
2019-05-20T03:24:53.562Z,97611.48
2019-05-20T03:28:07.569Z,97618.02
2019-05-20T03:31:21.241Z,97615.13
2019-05-20T03:34:50.638Z,97622.31
2019-05-20T03:37:50.271Z,97612.05
2019-05-20T03:41:03.853Z,97612.56
2019-05-20T03:44:17.456Z,97613.03
2019-05-20T03:47:31.230Z,97618.40
2019-05-20T03:50:44.836Z,97624.54
2019-05-20T03:53:58.764Z,97630.95
2019-05-20T03:57:12.482Z,97635.41
2019-05-20T04:00:41.885Z,97634.35
2019-05-20T04:03:55.635Z,97628.08
2019-05-20T04:07:09.327Z,97636.74
2019-05-20T04:10:22.945Z,97632.30
2019-05-20T04:13:36.559Z,97635.70
2019-05-20T04:16:51.182Z,97629.67
2019-05-20T04:20:04.902Z,97631.52
2019-05-20T04:23:18.894Z,97629.33
2019-05-20T04:26:32.388Z,97634.29
2019-05-20T04:29:45.949Z,97629.03
2019-05-20T04:32:59.892Z,97633.55
2019-05-20T04:36:13.478Z,97634.32
2019-05-20T04:39:27.204Z,97631.52
2019-05-20T04:42:41.092Z,97633.34
2019-05-20T04:45:55.839Z,97628.94
2019-05-20T04:49:09.471Z,97633.00
2019-05-20T04:52:23.109Z,97636.76
2019-05-20T04:55:36.631Z,97636.09
2019-05-20T04:58:50.127Z,97634.30
2019-05-20T05:02:03.748Z,97643.70
2019-05-20T05:05:17.228Z,97647.94
2019-05-20T05:08:30.820Z,97655.67
2019-05-20T05:11:44.841Z,97657.11
2019-05-20T05:16:38.536Z,97661.88
2019-05-20T05:19:52.057Z,97664.20
2019-05-20T05:23:06.180Z,97664.94
2019-05-20T05:26:19.931Z,97657.54
2019-05-20T05:29:33.563Z,97655.81
2019-05-20T05:32:47.133Z,97661.80
2019-05-20T05:36:01.046Z,97660.58
2019-05-20T05:39:15.061Z,97670.83
2019-05-20T05:42:28.685Z,97671.09
2019-05-20T05:45:42.195Z,97665.55
2019-05-20T05:48:55.789Z,97666.44
2019-05-20T05:52:10.054Z,97665.26
2019-05-20T05:55:23.752Z,97669.52
2019-05-20T05:58:37.909Z,97659.86
2019-05-20T06:01:51.555Z,97663.19
2019-05-20T06:05:05.199Z,97662.72
2019-05-20T06:08:19.101Z,97667.74
2019-05-20T06:11:32.902Z,97665.16
2019-05-20T06:14:46.775Z,97662.08
2019-05-20T06:18:00.473Z,97661.64
2019-05-20T06:21:14.516Z,97668.89
2019-05-20T06:24:28.278Z,97661.90
2019-05-20T06:27:42.051Z,97667.18
2019-05-20T06:30:55.814Z,97665.38
2019-05-20T06:34:09.469Z,97666.52
2019-05-20T06:37:25.277Z,97665.34
2019-05-20T06:40:39.010Z,97665.95
2019-05-20T06:43:52.686Z,97674.86
2019-05-20T06:47:06.323Z,97673.23
2019-05-20T06:50:20.145Z,97670.90
2019-05-20T06:53:34.007Z,97683.06
2019-05-20T06:56:47.703Z,97685.61
2019-05-20T07:00:01.551Z,97685.27
2019-05-20T07:03:15.166Z,97686.02
2019-05-20T07:06:44.725Z,97692.59
2019-05-20T07:09:44.613Z,97694.15
2019-05-20T07:12:58.107Z,97685.38
2019-05-20T07:16:11.660Z,97689.06
2019-05-20T07:19:25.330Z,97697.40
2019-05-20T07:22:54.573Z,97695.59
2019-05-20T07:25:54.650Z,97690.73
2019-05-20T07:29:08.149Z,97694.39
2019-05-20T07:32:21.768Z,97688.56
2019-05-20T07:35:35.300Z,97695.14
2019-05-20T07:38:48.937Z,97691.86
2019-05-20T07:42:02.658Z,97692.58
2019-05-20T07:45:16.353Z,97696.98
2019-05-20T07:48:30.429Z,97691.17
2019-05-20T07:51:44.722Z,97689.61
2019-05-20T07:54:59.893Z,97678.42
2019-05-20T07:58:15.497Z,97688.98
2019-05-20T08:01:29.555Z,97690.50
2019-05-20T08:04:43.399Z,97695.00
2019-05-20T08:07:57.127Z,97693.66
2019-05-20T08:11:11.312Z,97695.09
2019-05-20T08:14:24.911Z,97692.96
2019-05-20T08:17:38.674Z,97704.00
2019-05-20T08:20:52.965Z,97708.53
2019-05-20T08:24:06.695Z,97711.83
2019-05-20T08:27:20.475Z,97702.78
2019-05-20T08:30:35.497Z,97696.72
2019-05-20T08:33:49.420Z,97699.41
2019-05-20T08:37:03.149Z,97705.67
2019-05-20T08:40:18.059Z,97700.28
2019-05-20T08:43:31.614Z,97703.45
2019-05-20T08:46:45.350Z,97707.42
2019-05-20T08:49:58.917Z,97718.09
2019-05-20T08:53:12.621Z,97715.49
2019-05-20T08:56:26.316Z,97722.32
2019-05-20T08:59:39.761Z,97730.40
2019-05-20T09:02:53.599Z,97728.73
2019-05-20T09:06:07.429Z,97725.95
2019-05-20T09:09:21.198Z,97717.80
2019-05-20T09:12:35.322Z,97707.91
2019-05-20T09:15:49.097Z,97711.70
2019-05-20T09:19:02.828Z,97715.77
2019-05-20T09:22:16.659Z,97715.49
2019-05-20T09:25:31.404Z,97709.12
2019-05-20T09:28:45.061Z,97715.61
2019-05-20T09:31:59.135Z,97716.93
2019-05-20T09:35:12.889Z,97711.39
2019-05-20T09:38:26.423Z,97714.84
2019-05-20T09:41:40.820Z,97705.56
2019-05-20T09:44:54.511Z,97707.80
2019-05-20T09:48:09.675Z,97703.78
2019-05-20T09:51:23.527Z,97703.78
2019-05-20T09:54:37.370Z,97710.28
2019-05-20T09:57:50.866Z,97714.32
2019-05-20T10:01:04.697Z,97712.80
2019-05-20T10:04:18.415Z,97713.58
2019-05-20T10:07:31.953Z,97716.78
2019-05-20T10:10:45.891Z,97722.53
2019-05-20T10:13:59.429Z,97719.71
2019-05-20T10:17:13.030Z,97727.55
2019-05-20T10:20:26.820Z,97723.09
2019-05-20T10:23:40.368Z,97724.09
2019-05-20T10:26:53.858Z,97722.19
2019-05-20T10:30:07.688Z,97719.89
2019-05-20T10:33:21.374Z,97723.80
2019-05-20T10:36:35.189Z,97726.66
2019-05-20T10:39:48.929Z,97724.11
2019-05-20T10:43:02.627Z,97728.17
2019-05-20T10:46:16.308Z,97729.59
2019-05-20T10:49:30.027Z,97724.08
2019-05-20T10:52:43.664Z,97722.90
2019-05-20T10:55:57.636Z,97722.80
2019-05-20T10:59:12.416Z,97721.59
2019-05-20T11:02:30.991Z,97722.78
2019-05-20T11:05:42.431Z,97720.09
2019-05-20T11:08:56.474Z,97726.95
2019-05-20T11:12:10.009Z,97737.13
2019-05-20T11:15:23.768Z,97744.59
2019-05-20T11:18:37.280Z,97741.25
2019-05-20T11:21:51.121Z,97749.89
2019-05-20T11:25:04.977Z,97757.09
2019-05-20T11:28:19.211Z,97752.33
2019-05-20T11:31:33.023Z,97764.19
2019-05-20T11:34:46.717Z,97758.52
2019-05-20T11:38:00.566Z,97773.33
2019-05-20T11:41:14.307Z,97775.69
2019-05-20T11:44:28.086Z,97786.33
2019-05-20T11:47:41.790Z,97782.97
2019-05-20T11:50:55.386Z,97775.44
2019-05-20T11:54:09.166Z,97789.83
2019-05-20T11:57:22.815Z,97788.98
2019-05-20T12:00:40.492Z,97792.81
2019-05-20T12:03:54.064Z,97787.92
2019-05-20T12:07:08.640Z,97791.55
2019-05-20T12:10:22.611Z,97796.20
2019-05-20T12:16:37.771Z,97788.29
2019-05-20T12:19:51.628Z,97801.56
2019-05-20T12:23:05.273Z,97805.94
2019-05-20T12:26:22.458Z,97803.86
2019-05-20T12:29:34.792Z,97802.73
2019-05-20T12:32:48.482Z,97800.41
2019-05-20T12:36:02.837Z,97803.05
2019-05-20T12:39:16.559Z,97799.11
2019-05-20T12:42:30.491Z,97798.58
2019-05-20T12:45:44.252Z,97792.45
2019-05-20T12:48:57.962Z,97797.25
2019-05-20T12:52:11.658Z,97797.44
2019-05-20T12:55:25.457Z,97809.71
2019-05-20T12:58:39.284Z,97803.44
2019-05-20T13:01:53.086Z,97813.42
2019-05-20T13:05:06.969Z,97813.87
2019-05-20T13:08:20.937Z,97811.23
2019-05-20T13:11:34.744Z,97811.81
2019-05-20T13:14:48.547Z,97807.97
2019-05-20T13:18:02.335Z,97805.42
2019-05-20T13:21:16.078Z,97794.98
2019-05-20T13:24:29.758Z,97795.69
2019-05-20T13:27:43.608Z,97786.30
2019-05-20T13:30:57.238Z,97777.93
2019-05-20T13:34:10.854Z,97775.63
2019-05-20T13:37:24.359Z,97770.27
2019-05-20T13:40:46.448Z,97765.15
2019-05-20T13:43:53.424Z,97764.25
2019-05-20T13:47:07.146Z,97756.51
2019-05-20T13:50:20.986Z,97754.08
2019-05-20T13:53:34.996Z,97746.81
2019-05-20T13:56:48.932Z,97747.17
2019-05-20T14:00:02.956Z,97738.84
2019-05-20T14:03:16.671Z,97731.70
2019-05-20T14:06:30.290Z,97735.44
2019-05-20T14:09:43.894Z,97739.13
2019-05-20T14:12:57.578Z,97740.46
2019-05-20T14:16:11.401Z,97743.03
2019-05-20T14:19:25.219Z,97743.26
2019-05-20T14:22:38.879Z,97742.48
2019-05-20T14:25:52.667Z,97740.66
2019-05-20T14:29:06.500Z,97743.73
2019-05-20T14:32:20.173Z,97734.74
2019-05-20T14:35:34.356Z,97739.63
2019-05-20T14:38:48.097Z,97740.39
2019-05-20T14:42:01.872Z,97745.49
2019-05-20T14:45:16.123Z,97751.41
2019-05-20T14:48:29.917Z,97761.59
2019-05-20T14:51:43.699Z,97760.77
2019-05-20T14:54:57.372Z,97764.80
2019-05-20T14:58:11.347Z,97764.50
2019-05-20T15:01:25.187Z,97771.52
2019-05-20T15:04:38.793Z,97774.52
2019-05-20T15:07:52.473Z,97757.06
2019-05-20T15:11:06.150Z,97764.30
2019-05-20T15:14:19.910Z,97761.00
2019-05-20T15:17:33.677Z,97763.75
2019-05-20T15:20:47.833Z,97769.64
2019-05-20T15:24:02.025Z,97781.47
2019-05-20T15:27:15.800Z,97791.45
2019-05-20T15:30:29.574Z,97793.14
2019-05-20T15:33:43.327Z,97792.63
2019-05-20T15:36:56.980Z,97801.40
2019-05-20T15:40:11.132Z,97806.36
2019-05-20T15:43:25.397Z,97804.61
2019-05-20T15:46:39.043Z,97806.30
2019-05-20T15:49:52.728Z,97807.08
2019-05-20T15:53:11.060Z,97803.70
2019-05-20T15:56:22.022Z,97799.47
2019-05-20T15:59:45.368Z,97792.36
2019-05-20T16:02:51.366Z,97792.78
2019-05-20T16:06:05.343Z,97793.97
2019-05-20T16:09:19.111Z,97775.87
2019-05-20T16:12:34.400Z,97779.27
2019-05-20T16:15:48.093Z,97778.23
2019-05-20T16:19:01.722Z,97776.23
2019-05-20T16:22:15.466Z,97774.27
2019-05-20T16:25:29.226Z,97771.57
2019-05-20T16:28:42.762Z,97777.08
2019-05-20T16:31:56.738Z,97790.27
2019-05-20T16:35:10.572Z,97787.22
2019-05-20T16:38:24.305Z,97797.64
2019-05-20T16:41:38.024Z,97799.69
2019-05-20T16:44:51.598Z,97794.27
2019-05-20T16:48:05.297Z,97796.94
2019-05-20T16:51:22.080Z,97792.98
2019-05-20T16:54:34.666Z,97797.61
2019-05-20T16:57:48.290Z,97798.17
2019-05-20T17:01:02.004Z,97801.59
2019-05-20T17:04:15.703Z,97805.20
2019-05-20T17:07:29.357Z,97817.23
2019-05-20T17:10:43.383Z,97830.20
2019-05-20T17:13:56.911Z,97829.95
2019-05-20T17:17:10.940Z,97829.20
2019-05-20T17:20:24.673Z,97832.83
2019-05-20T17:23:38.285Z,97828.95
2019-05-20T17:26:52.430Z,97839.95
2019-05-20T17:30:06.446Z,97839.27
2019-05-20T17:33:20.529Z,97835.16
2019-05-20T17:36:34.546Z,97843.69
2019-05-20T17:39:48.084Z,97844.80
2019-05-20T17:43:01.840Z,97848.67
2019-05-20T17:46:15.771Z,97837.37
2019-05-20T17:49:31.420Z,97842.66
2019-05-20T17:53:04.782Z,97848.71
2019-05-20T17:56:18.872Z,97855.33
2019-05-20T17:59:32.980Z,97862.02
2019-05-20T18:02:46.997Z,97870.62
2019-05-20T18:06:00.649Z,97872.13
2019-05-20T18:09:14.799Z,97872.13
2019-05-20T18:12:28.533Z,97874.15
2019-05-20T18:15:42.570Z,97866.95
2019-05-20T18:18:56.619Z,97862.44
2019-05-20T18:22:10.268Z,97880.57
2019-05-20T18:25:23.883Z,97870.92
2019-05-20T18:28:37.965Z,97874.95
2019-05-20T18:31:51.693Z,97883.13
2019-05-20T18:35:05.833Z,97877.13
2019-05-20T18:38:19.517Z,97870.05
2019-05-20T18:41:33.130Z,97879.72
2019-05-20T18:44:46.766Z,97880.25
2019-05-20T18:48:00.726Z,97878.30
2019-05-20T18:51:14.259Z,97889.77
2019-05-20T18:54:27.766Z,97902.28
2019-05-20T18:57:41.389Z,97895.41
2019-05-20T19:00:54.904Z,97888.77
2019-05-20T19:04:08.531Z,97878.83
2019-05-20T19:07:22.257Z,97883.86
2019-05-20T19:10:35.966Z,97883.45
2019-05-20T19:13:49.700Z,97889.64
2019-05-20T19:17:03.403Z,97882.11
2019-05-20T19:20:17.140Z,97893.40
2019-05-20T19:23:30.748Z,97908.41
2019-05-20T19:26:44.323Z,97912.03
2019-05-20T19:29:57.951Z,97912.62
2019-05-20T19:33:11.776Z,97928.66
2019-05-20T19:36:25.496Z,97914.12
2019-05-20T19:39:39.036Z,97923.57
2019-05-20T19:42:52.773Z,97931.12
2019-05-20T19:46:06.501Z,97940.38
2019-05-20T19:49:20.172Z,97923.78
2019-05-20T19:52:34.439Z,97930.20
2019-05-20T19:55:47.955Z,97934.03
2019-05-20T19:59:01.682Z,97929.83
2019-05-20T20:02:17.746Z,97937.13
2019-05-20T20:05:30.924Z,97933.48
2019-05-20T20:08:44.747Z,97927.19
2019-05-20T20:11:58.361Z,97917.33
2019-05-20T20:15:16.443Z,97908.83
2019-05-20T20:18:29.965Z,97917.95
2019-05-20T20:21:43.507Z,97921.06
2019-05-20T20:24:57.277Z,97923.22
2019-05-20T20:28:10.927Z,97913.66
2019-05-20T20:31:24.821Z,97917.33
2019-05-20T20:34:38.307Z,97926.49
2019-05-20T20:37:51.919Z,97928.20
2019-05-20T20:41:05.669Z,97933.45
2019-05-20T20:44:19.225Z,97924.88
2019-05-20T20:47:41.383Z,97936.08
2019-05-20T20:50:48.378Z,97939.48
2019-05-20T20:54:02.014Z,97940.91
2019-05-20T20:57:15.709Z,97937.98
2019-05-20T21:00:29.310Z,97948.13
2019-05-20T21:03:43.106Z,97946.20
2019-05-20T21:06:56.615Z,97949.28
2019-05-20T21:10:10.430Z,97954.64
2019-05-20T21:16:44.480Z,97969.45
2019-05-20T21:19:58.170Z,97964.34
2019-05-20T21:23:11.816Z,97967.02
2019-05-20T21:26:25.302Z,97966.30
2019-05-20T21:29:38.933Z,97965.50
2019-05-20T21:33:07.610Z,97963.80
2019-05-20T21:36:07.947Z,97965.30
2019-05-20T21:39:21.603Z,97961.02
2019-05-20T21:42:35.487Z,97951.52
2019-05-20T21:45:48.978Z,97954.15
2019-05-20T21:49:02.921Z,97952.82
2019-05-20T21:52:16.442Z,97956.03
2019-05-20T21:55:30.069Z,97960.23
2019-05-20T21:58:43.564Z,97971.91
2019-05-20T22:01:57.063Z,97968.45
2019-05-20T22:05:11.197Z,97974.69
2019-05-20T22:08:24.801Z,97971.23
2019-05-20T22:11:38.318Z,97978.02
2019-05-20T22:14:52.145Z,97977.67
2019-05-20T22:18:05.744Z,97979.09
2019-05-20T22:21:23.654Z,97975.61
2019-05-20T22:24:37.528Z,97982.45
2019-05-20T22:27:51.355Z,97983.14
2019-05-20T22:31:04.841Z,97976.84
2019-05-20T22:34:18.553Z,97976.84
2019-05-20T22:37:32.457Z,97979.42
2019-05-20T22:40:45.973Z,97977.97
2019-05-20T22:44:00.096Z,97980.69
2019-05-20T22:47:13.905Z,97968.30
2019-05-20T22:50:27.745Z,97979.95
2019-05-20T22:53:41.298Z,97975.22
2019-05-20T22:56:55.181Z,97970.36
2019-05-20T23:00:08.869Z,97968.66
2019-05-20T23:03:23.115Z,97973.60
2019-05-20T23:15:42.304Z,97964.64
2019-05-20T23:18:55.815Z,97965.63
2019-05-20T23:22:10.347Z,97958.81
2019-05-20T23:25:23.831Z,97959.53
2019-05-20T23:28:37.419Z,97961.43
2019-05-20T23:31:50.914Z,97955.47
2019-05-20T23:35:04.766Z,97956.44
2019-05-20T23:38:18.282Z,97959.48
2019-05-20T23:41:32.199Z,97963.27
2019-05-20T23:44:45.698Z,97967.55
2019-05-20T23:47:59.202Z,97968.21
2019-05-20T23:51:13.229Z,97973.68
2019-05-20T23:54:26.711Z,97971.41
2019-05-20T23:57:40.318Z,97967.42
